createdAt,value
2019-06-10T11:41:02.049Z,0
2019-06-10T11:42:02.890Z,5.8
2019-06-10T11:43:01.983Z,5.5
2019-06-10T11:46:27.528Z,5.8
2019-06-10T11:47:27.433Z,5.4
2019-06-10T11:48:28.437Z,5.3
2019-06-10T11:49:27.429Z,6
2019-06-10T11:50:27.438Z,6
2019-06-10T11:51:27.454Z,6
2019-06-10T11:52:27.403Z,6.1
2019-06-10T11:53:29.360Z,6
2019-06-10T11:54:28.385Z,6.3
2019-06-10T11:55:27.343Z,6.6
2019-06-10T11:58:27.335Z,6.2
2019-06-10T11:59:27.323Z,6.8
2019-06-10T12:00:27.313Z,6
2019-06-10T12:01:27.341Z,6.9
2019-06-10T12:02:28.294Z,6.5
2019-06-10T12:03:27.267Z,6.5
2019-06-10T12:04:27.271Z,6.2
2019-06-10T12:05:27.259Z,6.5
2019-06-10T12:06:27.235Z,6.3
2019-06-10T12:07:27.250Z,6.6
2019-06-10T12:08:27.225Z,6.7
2019-06-10T12:09:27.219Z,6.4
2019-06-10T12:10:27.209Z,6.7
2019-06-10T12:11:27.186Z,6.9
2019-06-10T12:12:27.219Z,6.9
2019-06-10T12:13:27.186Z,6.4
2019-06-10T12:14:29.125Z,7.1
2019-06-10T12:15:28.164Z,6.9
2019-06-10T12:17:15.205Z,6.3
2019-06-10T12:17:42.784Z,6.1
2019-06-10T12:18:28.125Z,6.7
2019-06-10T12:19:27.112Z,6
2019-06-10T12:20:29.074Z,6.2
2019-06-10T12:21:27.077Z,6.4
2019-06-10T12:22:27.062Z,5.7
2019-06-10T12:23:27.071Z,6
2019-06-10T12:24:27.049Z,5.6
2019-06-10T12:25:36.433Z,5.9
2019-06-10T12:26:28.032Z,5.4
2019-06-10T12:27:27.127Z,6
2019-06-10T12:35:26.935Z,7
2019-06-10T12:36:26.910Z,6.1
2019-06-10T12:57:58.240Z,5.6
2019-06-10T12:59:02.762Z,5.7
2019-06-10T12:59:58.162Z,6.2
2019-06-10T13:04:43.730Z,5.8
2019-06-10T13:05:44.732Z,7.5
2019-06-10T13:06:42.750Z,6.8
2019-06-10T13:07:44.708Z,6.7
2019-06-10T13:08:43.722Z,6.4
2019-06-10T13:09:43.962Z,6.1
2019-06-10T13:10:43.677Z,6.5
2019-06-10T13:11:43.673Z,6.8
2019-06-10T13:12:43.667Z,6.5
2019-06-10T13:13:45.330Z,6.9
2019-06-10T13:14:44.750Z,6.9
2019-06-10T13:15:43.727Z,7.2
2019-06-10T13:16:43.723Z,6.3
2019-06-10T13:17:44.099Z,6.8
2019-06-10T13:18:42.766Z,6.5
2019-06-10T13:19:43.676Z,7.4
2019-06-10T13:20:45.273Z,7.5
2019-06-10T13:21:43.679Z,6.5
2019-06-10T13:22:43.885Z,6.8
2019-06-10T13:23:43.686Z,6.7
2019-06-10T13:24:43.653Z,6.6
2019-06-10T13:25:53.634Z,6.4
2019-06-10T13:26:43.617Z,6.7
2019-06-10T13:27:43.592Z,6.8
2019-06-10T13:28:44.682Z,6.8
2019-06-10T13:29:44.588Z,6.3
2019-06-10T13:30:43.581Z,6.6
2019-06-10T13:31:43.811Z,6.2
2019-06-10T13:32:44.552Z,7.1
2019-06-10T13:33:43.591Z,6
2019-06-10T13:34:43.533Z,5.9
2019-06-10T13:35:44.239Z,6.5
2019-06-10T13:36:43.523Z,6.2
2019-06-10T13:37:43.546Z,6.1
2019-06-10T13:38:43.495Z,7
2019-06-10T13:39:43.486Z,6.8
2019-06-10T13:40:44.436Z,6.4
2019-06-10T13:41:43.942Z,6.6
2019-06-10T13:42:43.449Z,6.5
2019-06-10T13:43:43.658Z,6.7
2019-06-10T13:44:43.416Z,6.4
2019-06-10T13:45:43.398Z,6.3
2019-06-10T13:46:44.407Z,6.4
2019-06-10T13:47:43.811Z,6
2019-06-10T13:48:43.371Z,5.9
2019-06-10T13:49:43.795Z,6.3
2019-06-10T13:50:43.368Z,5.7
2019-06-10T13:51:43.905Z,6
2019-06-10T13:52:43.331Z,5.5
2019-06-10T13:53:46.179Z,5.9
2019-06-10T13:54:45.221Z,5.8
2019-06-10T13:55:42.330Z,5.8
2019-06-10T13:56:47.265Z,6.3
2019-06-10T13:57:44.733Z,6
2019-06-10T13:58:46.177Z,6.1
2019-06-10T13:59:46.268Z,5.8
2019-06-10T14:00:46.607Z,5.7
2019-06-10T14:01:43.249Z,5.3
2019-06-10T14:02:43.953Z,5.2
2019-06-10T14:03:44.114Z,6.1
2019-06-10T14:04:43.223Z,5.7
2019-06-10T14:05:44.946Z,5.3
2019-06-10T14:06:49.489Z,5.6
2019-06-10T14:07:43.490Z,5.9
2019-06-10T14:08:43.791Z,5.9
2019-06-10T14:09:42.163Z,5.3
2019-06-10T14:10:43.158Z,5.6
2019-06-10T14:11:43.131Z,5.5
2019-06-10T14:12:43.292Z,4.8
2019-06-10T14:13:43.452Z,4.6
2019-06-10T14:14:43.090Z,4.7
2019-06-10T14:15:43.137Z,4.9
2019-06-10T14:16:43.061Z,4.9
2019-06-10T14:17:44.082Z,5
2019-06-10T14:18:43.050Z,4.7
2019-06-10T14:19:43.370Z,4.6
2019-06-10T14:20:44.155Z,5
2019-06-10T14:21:43.018Z,5.2
2019-06-10T14:22:44.014Z,5
2019-06-10T14:23:42.987Z,4.8
2019-06-10T14:24:43.034Z,5
2019-06-10T14:25:42.962Z,5.1
2019-06-10T14:26:45.657Z,4.9
2019-06-10T14:27:43.496Z,4.7
2019-06-10T14:28:44.949Z,4.6
2019-06-10T14:29:43.206Z,5.1
2019-06-10T14:30:43.150Z,4.4
2019-06-10T14:31:47.554Z,4.9
2019-06-10T14:32:42.917Z,4.5
2019-06-10T14:33:43.050Z,5.1
2019-06-10T14:34:42.933Z,4.8
2019-06-10T14:35:43.881Z,4.6
2019-06-10T14:36:43.137Z,4.8
2019-06-10T14:37:43.839Z,5.2
2019-06-10T14:38:42.943Z,5.1
2019-06-10T14:39:42.833Z,5
2019-06-10T14:40:43.086Z,4.8
2019-06-10T14:41:43.108Z,4.6
2019-06-10T14:42:43.791Z,5.1
2019-06-10T14:43:42.784Z,4.9
2019-06-10T14:44:42.796Z,4.7
2019-06-10T14:45:43.785Z,4.9
2019-06-10T14:46:42.767Z,4.7
2019-06-10T14:47:43.178Z,4.8
2019-06-10T14:48:42.791Z,4.6
2019-06-10T14:49:42.747Z,4.8
2019-06-10T14:50:43.429Z,4.8
2019-06-10T14:51:43.189Z,4.5
2019-06-10T14:52:42.861Z,4.6
2019-06-10T14:53:42.850Z,4.9
2019-06-10T14:54:42.914Z,4.8
2019-06-10T14:55:43.292Z,4.5
2019-06-10T14:56:52.733Z,4.3
2019-06-10T14:57:42.765Z,4.8
2019-06-10T14:58:42.631Z,4.7
2019-06-10T14:59:43.640Z,4.8
2019-06-10T15:00:45.320Z,4.5
2019-06-10T15:01:42.718Z,4.1
2019-06-10T15:02:43.019Z,4
2019-06-10T15:03:42.987Z,3.8
2019-06-10T15:04:42.668Z,4
2019-06-10T15:05:43.297Z,4.2
2019-06-10T15:06:43.317Z,4
2019-06-10T15:07:42.514Z,3.9
2019-06-10T15:08:42.904Z,4.1
2019-06-10T15:09:43.104Z,3.7
2019-06-10T15:10:43.055Z,4.2
2019-06-10T15:11:42.845Z,4.2
2019-06-10T15:12:42.492Z,4.3
2019-06-10T15:13:43.426Z,4.3
2019-06-10T15:14:42.773Z,4.3
2019-06-10T15:15:42.570Z,4.1
2019-06-10T15:16:43.720Z,4.4
2019-06-10T15:17:43.032Z,3.8
2019-06-10T15:18:43.173Z,4.1
2019-06-10T15:19:42.559Z,4.1
2019-06-10T15:20:42.864Z,4.4
2019-06-10T15:21:42.814Z,4.4
2019-06-10T15:22:43.111Z,3.7
2019-06-10T15:23:42.851Z,4
2019-06-10T15:24:42.850Z,3.9
2019-06-10T15:25:52.163Z,3.5
2019-06-10T15:26:42.406Z,3.5
2019-06-10T15:27:42.816Z,3.9
2019-06-10T15:28:42.705Z,3.5
2019-06-10T15:29:43.103Z,3.7
2019-06-10T15:30:43.140Z,3.6
2019-06-10T15:31:42.803Z,3.5
2019-06-10T15:32:42.886Z,3.7
2019-06-10T15:33:42.981Z,3.5
2019-06-10T15:34:42.979Z,3.2
2019-06-10T15:35:42.788Z,3.6
2019-06-10T15:36:43.185Z,3.6
2019-06-10T15:37:42.977Z,3.5
2019-06-10T15:38:43.848Z,3.6
2019-06-10T15:39:42.411Z,3.5
2019-06-10T15:40:43.288Z,3.4
2019-06-10T15:41:42.843Z,3.8
2019-06-10T15:42:42.611Z,3.5
2019-06-10T15:43:42.383Z,3.3
2019-06-10T15:44:49.450Z,3.6
2019-06-10T15:45:43.160Z,3.5
2019-06-10T15:46:43.002Z,3.2
2019-06-10T15:47:42.701Z,3.6
2019-06-10T15:48:42.946Z,3.4
2019-06-10T15:49:42.065Z,3.2
2019-06-10T15:50:42.939Z,3.3
2019-06-10T15:51:43.349Z,3.5
2019-06-10T15:52:43.117Z,3.5
2019-06-10T15:53:43.043Z,3.6
2019-06-10T15:54:42.632Z,3.6
2019-06-10T15:56:08.849Z,4.1
2019-06-10T15:56:49.811Z,3.9
2019-06-10T15:57:46.432Z,4.6
2019-06-10T15:58:42.866Z,4.6
2019-06-10T15:59:42.972Z,4.5
2019-06-10T16:00:42.538Z,3.9
2019-06-10T16:01:40.983Z,4.3
2019-06-10T16:02:40.923Z,4.4
2019-06-10T16:03:42.427Z,4.2
2019-06-10T16:04:43.193Z,4.2
2019-06-10T16:05:42.714Z,4.3
2019-06-10T16:06:42.457Z,4.7
2019-06-10T16:07:42.379Z,4.4
2019-06-10T16:08:42.944Z,4.2
2019-06-10T16:09:42.374Z,4
2019-06-10T16:10:42.823Z,4.4
2019-06-10T16:11:43.882Z,4.7
2019-06-10T16:12:43.609Z,4.6
2019-06-10T16:13:42.964Z,4.8
2019-06-10T16:14:42.470Z,5.1
2019-06-10T16:15:43.250Z,5.1
